San Jose, CA (95108)

12:35 PM PDT on August 27, 2014 (GMT -0700)
near hills | Change Station
CLOSE
Current Station
Personal Weather Station
Location: Cupertino, CA
Elevation: 436 ft
Nearby Weather Stations

Elev 436 ft 37.33 °N, 122.08 °W | Updated 17 seconds ago

Clear
Clear
81.9 °F
Feels Like 83 °F
N
0.0
Wind Variable Wind from SW
Gusts 0.0 mph

Today
High -- | Low -- °F
--% Chance of Precip.
Yesterday
High -- | Low -- °F
Precip. -- in
6:34 AM 7:44 PM
Waxing Crescent, 4% visible
Pressure 30.06 in
Visibility 10.0 miles
Clouds Clear
Heat Index 83 °F
Dew Point 62 °F
Humidity 50%
Rainfall 0.00 in
Snow Depth Not available.
UV 9 out of 12
Pollen 7.00 out of 12
Ozone Good
PM2.5 Good
Flu Activity Not available.
METAR KNUQ 271856Z 34005KT 10SM CLR 24/16 A3006 RMK AO2 SLP180 T02390156

More Conditions Fewer Conditions

Pressure 30.06 in
Visibility 10.0 miles
Clouds Clear
Heat Index 83 °F
Dew Point 62 °F
Humidity 50%
Rainfall 0.00 in
Snow Depth Not available.
UV 9 out of 12
Pollen 7.00 out of 12
Ozone Good
PM2.5 Good
Flu Activity Not available.
METAR KNUQ 271856Z 34005KT 10SM CLR 24/16 A3006 RMK AO2 SLP180 T02390156

More Conditions Fewer Conditions

10-Day Weather Forecast

Almanac

Astronomy

Aug. 27, 2014 Rise Set
Actual Time 6:34 AM PDT 7:44 PM PDT
Civil Twilight 6:07 AM PDT 8:11 PM PDT
Nautical Twilight 5:35 AM PDT 8:43 PM PDT
Astronomical Twilight 5:02 AM PDT 9:16 PM PDT
Moon 8:32 AM PDT 8:43 PM PDT
Length of Visible Light 14h 03m
Length of Day
13h 09m
Tomorrow will be 2m 16s shorter.
Waxing Crescent, 4% of the Moon is Illuminated
Today
Waxing Crescent
Sep 2
First Quarter
Sep 8
Full
Sep 15
Last Quarter
Sep 24
New

Today's Extremes

State Highs State Lows

Community

WunderPhotos

Upload Photos

1,747,769 photos uploaded!

Nearby

Air Quality

  Air Quality AQ Index Pollutant
Yesterday Good
OZONE
Yesterday Good
PM2.5
Current Good
PM2.5
Current Good
OZONE
Wednesday Good
OZONE
Thursday Good
OZONE
Friday Good
OZONE
Saturday Good
OZONE
Sunday Good
OZONE
Monday Good
OZONE

Snow Depth

Station Depth Elevation
Leavitt Lake 0 in 9400 ft
Leavitt Meadows 0 in 7200 ft
Fallen Leaf 0 in 6300 ft
Summit Meadow 0 in 9122 ft
Monitor Pass 0 in 8350 ft

Earthquake Activity

City Distance Mag. Time & Date
Napa, California 64 miles 2.6 11:57 AM PDT
2014-08-27
The Geysers, California 109 miles 2.6 7:42 AM PDT
2014-08-27
Soledad, California 76 miles 2.6 12:15 PM PDT
2014-08-26
Napa, California 63 miles 2.5 10:56 AM PDT
2014-08-26
Minimum magnitude displayed is 2.5.

Coastal Water Temperatures

Place Temperature
No Stations Reporting

Nearby Weather Stations